createdAt,value
2023-10-05T00:00:02.248Z,946.62
2023-10-05T00:01:03.083Z,946.64
2023-10-05T00:02:03.453Z,946.65
2023-10-05T00:03:03.929Z,946.7
2023-10-05T00:04:04.962Z,946.66
2023-10-05T00:05:05.083Z,946.63
2023-10-05T00:06:05.808Z,946.6
2023-10-05T00:07:06.791Z,946.55
2023-10-05T00:08:06.907Z,946.54
2023-10-05T00:09:07.673Z,946.54
2023-10-05T00:10:08.635Z,946.52
2023-10-05T00:11:09.597Z,946.55
2023-10-05T00:12:10.540Z,946.51
2023-10-05T00:13:11.622Z,946.54
2023-10-05T00:14:12.534Z,946.52
2023-10-05T00:15:12.683Z,946.52
2023-10-05T00:16:13.409Z,946.48
2023-10-05T00:17:13.646Z,946.45
2023-10-05T00:18:14.114Z,946.42
2023-10-05T00:19:15.050Z,946.36
2023-10-05T00:20:15.937Z,946.36
2023-10-05T00:21:16.428Z,946.35
2023-10-05T00:22:16.809Z,946.33
2023-10-05T00:23:17.127Z,946.4
2023-10-05T00:24:17.498Z,946.36
2023-10-05T00:25:18.122Z,946.38
2023-10-05T00:26:18.875Z,946.37
2023-10-05T00:27:19.785Z,946.35
2023-10-05T00:28:20.741Z,946.38
2023-10-05T00:29:21.737Z,946.42
2023-10-05T00:30:22.259Z,946.39
2023-10-05T00:31:23.313Z,946.4
2023-10-05T00:32:23.572Z,946.39
2023-10-05T00:33:24.572Z,946.4
2023-10-05T00:34:25.496Z,946.41
2023-10-05T00:35:26.468Z,946.41
2023-10-05T00:36:27.272Z,946.42
2023-10-05T00:37:28.311Z,946.44
2023-10-05T00:38:29.062Z,946.4
2023-10-05T00:39:29.654Z,946.46
2023-10-05T00:40:29.974Z,946.44
2023-10-05T00:41:30.941Z,946.45
2023-10-05T00:42:31.663Z,946.41
2023-10-05T00:43:32.183Z,946.41
2023-10-05T00:44:32.741Z,946.4
2023-10-05T00:45:33.409Z,946.4
2023-10-05T00:46:34.107Z,946.41
2023-10-05T00:47:34.479Z,946.42
2023-10-05T00:48:34.685Z,946.43
2023-10-05T00:49:35.617Z,946.47
2023-10-05T00:50:35.940Z,946.48
2023-10-05T00:51:36.689Z,946.51
2023-10-05T00:52:36.921Z,946.46
2023-10-05T00:53:37.057Z,946.48
2023-10-05T00:54:37.986Z,946.48
2023-10-05T00:55:38.731Z,946.43
2023-10-05T00:56:39.553Z,946.43
2023-10-05T00:57:40.045Z,946.45
2023-10-05T00:58:40.673Z,946.48
2023-10-05T00:59:41.624Z,946.47
2023-10-05T01:00:42.398Z,946.47
2023-10-05T01:01:43.436Z,946.51
2023-10-05T01:02:44.158Z,946.47
2023-10-05T01:03:44.776Z,946.46
2023-10-05T01:04:45.109Z,946.43
2023-10-05T01:05:46.067Z,946.43
2023-10-05T01:06:46.491Z,946.43
2023-10-05T01:07:46.791Z,946.41
2023-10-05T01:08:47.502Z,946.4
2023-10-05T01:09:47.660Z,946.4
2023-10-05T01:10:48.116Z,946.43
2023-10-05T01:11:48.802Z,946.4
2023-10-05T01:12:48.958Z,946.41
2023-10-05T01:13:49.937Z,946.37
2023-10-05T01:14:50.656Z,946.35
2023-10-05T01:15:51.393Z,946.33
2023-10-05T01:16:52.303Z,946.34
2023-10-05T01:17:53.256Z,946.31
2023-10-05T01:18:53.403Z,946.3
2023-10-05T01:19:53.615Z,946.3
2023-10-05T01:20:54.570Z,946.3
2023-10-05T01:21:55.146Z,946.27
2023-10-05T01:22:55.304Z,946.27
2023-10-05T01:23:56.232Z,946.24
2023-10-05T01:24:57.253Z,946.25
2023-10-05T01:25:57.831Z,946.25
2023-10-05T01:26:58.776Z,946.22
2023-10-05T01:27:59.913Z,946.22
2023-10-05T01:29:00.803Z,946.22
2023-10-05T01:30:01.840Z,946.2
2023-10-05T01:31:02.533Z,946.24
2023-10-05T01:32:02.898Z,946.25
2023-10-05T01:33:03.124Z,946.27
2023-10-05T01:34:03.505Z,946.27
2023-10-05T01:35:06.961Z,946.24
2023-10-05T01:36:04.827Z,946.25
2023-10-05T01:37:05.654Z,946.24
2023-10-05T01:38:06.006Z,946.24
2023-10-05T01:39:06.822Z,946.24
2023-10-05T01:40:07.685Z,946.22
2023-10-05T01:41:08.648Z,946.2
2023-10-05T01:42:09.193Z,946.2
2023-10-05T01:43:10.127Z,946.21
2023-10-05T01:44:11.126Z,946.17
2023-10-05T01:45:11.667Z,946.2
2023-10-05T01:46:12.360Z,946.2
2023-10-05T01:47:12.826Z,946.2
2023-10-05T01:48:13.323Z,946.21
2023-10-05T01:49:14.295Z,946.2
2023-10-05T01:50:14.395Z,946.16
2023-10-05T01:51:15.358Z,946.14
2023-10-05T01:52:15.687Z,946.13
2023-10-05T01:53:16.627Z,946.09
2023-10-05T01:54:17.383Z,946.15
2023-10-05T01:55:17.904Z,946.12
2023-10-05T01:56:18.171Z,946.12
2023-10-05T01:57:19.214Z,946.14
2023-10-05T01:58:20.083Z,946.12
2023-10-05T01:59:21.092Z,946.13
2023-10-05T02:00:21.277Z,946.11
2023-10-05T02:01:21.509Z,946.08
2023-10-05T02:02:21.787Z,946.06
2023-10-05T02:03:22.271Z,946.07
2023-10-05T02:04:22.887Z,946.12
2023-10-05T02:05:23.119Z,946.13
2023-10-05T02:06:23.431Z,946.12
2023-10-05T02:07:24.174Z,946.11
2023-10-05T02:08:24.325Z,946.08
2023-10-05T02:09:24.468Z,946.05
2023-10-05T02:10:25.404Z,946.08
2023-10-05T02:11:25.556Z,946.08
2023-10-05T02:12:26.177Z,946.04
2023-10-05T02:13:27.124Z,946.08
2023-10-05T02:14:27.660Z,946.05
2023-10-05T02:15:28.204Z,946.05
2023-10-05T02:16:28.631Z,946.07
2023-10-05T02:17:29.072Z,946.03
2023-10-05T02:18:29.901Z,946.05
2023-10-05T02:19:30.763Z,946.05
2023-10-05T02:20:30.960Z,946.04
2023-10-05T02:21:31.398Z,946.01
2023-10-05T02:22:32.391Z,946.04
2023-10-05T02:23:33.139Z,946.01
2023-10-05T02:24:33.922Z,945.98
2023-10-05T02:25:34.868Z,945.98
2023-10-05T02:26:35.353Z,945.97
2023-10-05T02:27:35.931Z,945.98
2023-10-05T02:28:36.884Z,945.98
2023-10-05T02:29:37.459Z,945.95
2023-10-05T02:30:38.215Z,945.94
2023-10-05T02:31:38.958Z,945.95
2023-10-05T02:32:39.886Z,945.92
2023-10-05T02:33:40.918Z,945.92
2023-10-05T02:34:41.605Z,945.91
2023-10-05T02:35:41.707Z,945.93
2023-10-05T02:36:42.313Z,945.91
2023-10-05T02:37:43.292Z,945.9
2023-10-05T02:38:44.224Z,945.9
2023-10-05T02:39:44.873Z,945.91
2023-10-05T02:40:45.146Z,945.91
2023-10-05T02:41:45.260Z,945.92
2023-10-05T02:42:46.174Z,945.9
2023-10-05T02:43:46.630Z,945.9
2023-10-05T02:44:46.989Z,945.94
2023-10-05T02:45:47.916Z,945.95
2023-10-05T02:46:48.769Z,945.93
2023-10-05T02:47:49.659Z,945.93
2023-10-05T02:48:50.618Z,945.9
2023-10-05T02:49:51.094Z,945.91
2023-10-05T02:50:51.369Z,945.88
2023-10-05T02:51:51.724Z,945.87
2023-10-05T02:52:52.607Z,945.84
2023-10-05T02:53:53.665Z,945.82
2023-10-05T02:54:54.633Z,945.84
2023-10-05T02:55:55.516Z,945.86
2023-10-05T02:56:56.089Z,945.88
2023-10-05T02:57:56.668Z,945.86
2023-10-05T02:58:57.609Z,945.87
2023-10-05T02:59:58.082Z,945.86
2023-10-05T03:00:58.983Z,945.81
2023-10-05T03:01:59.242Z,945.82
2023-10-05T03:02:59.838Z,945.83
2023-10-05T03:04:00.836Z,945.81
2023-10-05T03:05:01.212Z,945.82
2023-10-05T03:06:01.336Z,945.82
2023-10-05T03:07:01.639Z,945.76
2023-10-05T03:08:02.595Z,945.84
2023-10-05T03:09:02.747Z,945.74
2023-10-05T03:10:03.549Z,945.79
2023-10-05T03:11:04.250Z,945.76
2023-10-05T03:12:05.280Z,945.72
2023-10-05T03:13:05.539Z,945.74
2023-10-05T03:14:06.446Z,945.76
2023-10-05T03:15:07.498Z,945.81
2023-10-05T03:16:08.116Z,945.83
2023-10-05T03:17:09.079Z,945.78
2023-10-05T03:18:09.543Z,945.83
2023-10-05T03:19:10.553Z,945.85
2023-10-05T03:20:10.733Z,945.82
2023-10-05T03:21:11.773Z,945.86
2023-10-05T03:22:12.059Z,945.89
2023-10-05T03:23:12.337Z,945.92
2023-10-05T03:24:12.568Z,945.91
2023-10-05T03:25:13.374Z,945.95
2023-10-05T03:26:14.354Z,945.9
2023-10-05T03:27:15.417Z,945.9
2023-10-05T03:28:15.771Z,945.9
2023-10-05T03:29:16.493Z,945.9
2023-10-05T03:30:17.005Z,945.9
2023-10-05T03:31:18.072Z,945.91
2023-10-05T03:32:18.026Z,945.92
2023-10-05T03:33:19.120Z,945.9
2023-10-05T03:34:19.926Z,945.89
2023-10-05T03:35:20.181Z,945.87
2023-10-05T03:36:20.287Z,945.88
2023-10-05T03:37:21.053Z,945.92
2023-10-05T03:38:21.237Z,945.9
2023-10-05T03:39:22.188Z,945.91
2023-10-05T03:40:22.941Z,945.89
2023-10-05T03:41:23.438Z,945.91
2023-10-05T03:42:24.042Z,945.89
2023-10-05T03:43:24.944Z,945.91
2023-10-05T03:44:26.003Z,945.91
2023-10-05T03:45:26.689Z,945.91
2023-10-05T03:46:27.747Z,945.91
2023-10-05T03:47:27.929Z,945.92
2023-10-05T03:48:28.366Z,945.92
2023-10-05T03:49:29.317Z,945.88
2023-10-05T03:50:29.572Z,945.87
2023-10-05T03:51:30.518Z,945.88
2023-10-05T03:52:31.390Z,945.91
2023-10-05T03:53:31.394Z,945.88
2023-10-05T03:54:31.760Z,945.88
2023-10-05T03:55:32.297Z,945.85
2023-10-05T03:56:33.106Z,945.82
2023-10-05T03:57:33.363Z,945.83
2023-10-05T03:58:34.382Z,945.8
2023-10-05T03:59:34.560Z,945.78
2023-10-05T04:00:35.351Z,945.77
2023-10-05T04:01:35.628Z,945.74
2023-10-05T04:02:35.925Z,945.73
2023-10-05T04:03:36.987Z,945.7
2023-10-05T04:04:37.061Z,945.64
2023-10-05T04:05:37.861Z,945.6
2023-10-05T04:06:38.325Z,945.61
2023-10-05T04:07:39.067Z,945.63
2023-10-05T04:08:39.587Z,945.63
2023-10-05T04:09:40.056Z,945.71
2023-10-05T04:10:40.764Z,945.69
2023-10-05T04:11:41.052Z,945.68
2023-10-05T04:12:41.833Z,945.66
2023-10-05T04:13:42.181Z,945.69
2023-10-05T04:14:42.670Z,945.76
2023-10-05T04:15:42.787Z,945.74
2023-10-05T04:16:43.293Z,945.73
2023-10-05T04:17:43.379Z,945.75
2023-10-05T04:18:43.822Z,945.72
2023-10-05T04:19:44.220Z,945.73
2023-10-05T04:20:44.559Z,945.75
2023-10-05T04:21:45.224Z,945.76
2023-10-05T04:22:46.020Z,945.72
2023-10-05T04:23:46.761Z,945.73
2023-10-05T04:24:47.275Z,945.66
2023-10-05T04:25:47.736Z,945.71
2023-10-05T04:26:47.974Z,945.7
2023-10-05T04:27:48.548Z,945.72
2023-10-05T04:28:48.908Z,945.74
2023-10-05T04:29:49.841Z,945.73
2023-10-05T04:30:50.454Z,945.77
2023-10-05T04:31:51.409Z,945.77
2023-10-05T04:32:51.727Z,945.72
2023-10-05T04:33:52.720Z,945.74
2023-10-05T04:34:53.362Z,945.75
2023-10-05T04:35:53.529Z,945.76
2023-10-05T04:36:53.876Z,945.75
2023-10-05T04:37:54.496Z,945.74
2023-10-05T04:38:55.284Z,945.76
2023-10-05T04:39:55.558Z,945.73
2023-10-05T04:40:56.575Z,945.71
2023-10-05T04:41:57.453Z,945.68
2023-10-05T04:42:58.002Z,945.74
2023-10-05T04:43:58.854Z,945.73
2023-10-05T04:44:58.962Z,945.69
2023-10-05T04:45:59.747Z,945.73
2023-10-05T04:47:00.029Z,945.74
2023-10-05T04:48:01.141Z,945.73
2023-10-05T04:49:01.316Z,945.75
2023-10-05T04:50:01.810Z,945.73
2023-10-05T04:51:02.617Z,945.74
2023-10-05T04:52:03.309Z,945.8
2023-10-05T04:53:03.750Z,945.77
2023-10-05T04:54:04.088Z,945.79
2023-10-05T04:55:05.115Z,945.83
2023-10-05T04:56:06.045Z,945.88
2023-10-05T04:57:06.969Z,945.84
2023-10-05T04:58:07.428Z,945.8
2023-10-05T04:59:08.602Z,945.83
2023-10-05T05:00:09.166Z,945.81
2023-10-05T05:01:09.700Z,945.81
2023-10-05T05:02:10.470Z,945.76
2023-10-05T05:03:11.462Z,945.72
2023-10-05T05:04:13.526Z,945.69
2023-10-05T05:05:12.886Z,945.7
2023-10-05T05:06:13.801Z,945.71
2023-10-05T05:07:14.120Z,945.71
2023-10-05T05:08:14.652Z,945.7
2023-10-05T05:09:15.356Z,945.68
2023-10-05T05:10:16.155Z,945.69
2023-10-05T05:11:17.143Z,945.62
2023-10-05T05:12:18.069Z,945.63
2023-10-05T05:13:18.120Z,945.58
2023-10-05T05:14:19.201Z,945.6
2023-10-05T05:15:19.571Z,945.58
2023-10-05T05:16:20.454Z,945.6
2023-10-05T05:17:20.644Z,945.58
2023-10-05T05:18:21.682Z,945.61
2023-10-05T05:19:22.366Z,945.59
2023-10-05T05:20:22.753Z,945.59
2023-10-05T05:21:23.375Z,945.6
2023-10-05T05:22:24.142Z,945.63
2023-10-05T05:23:25.173Z,945.61
2023-10-05T05:24:25.304Z,945.63
2023-10-05T05:25:25.956Z,945.66
2023-10-05T05:26:26.192Z,945.63
2023-10-05T05:27:27.085Z,945.64
2023-10-05T05:28:27.818Z,945.63
2023-10-05T05:29:28.240Z,945.64
2023-10-05T05:30:28.766Z,945.67
2023-10-05T05:31:29.316Z,945.68
2023-10-05T05:32:30.361Z,945.71
2023-10-05T05:33:30.541Z,945.71
2023-10-05T05:34:31.288Z,945.77
2023-10-05T05:35:31.648Z,945.77
2023-10-05T05:36:32.403Z,945.8
2023-10-05T05:37:33.160Z,945.81
2023-10-05T05:38:33.838Z,945.8
2023-10-05T05:39:34.284Z,945.84
2023-10-05T05:40:35.276Z,945.89
2023-10-05T05:41:36.055Z,945.91
2023-10-05T05:42:37.043Z,945.94
2023-10-05T05:43:37.833Z,945.9
2023-10-05T05:44:38.760Z,945.95
2023-10-05T05:45:39.286Z,945.93
2023-10-05T05:46:39.788Z,945.97
2023-10-05T05:47:42.556Z,945.95
2023-10-05T05:48:40.404Z,945.98
2023-10-05T05:49:40.756Z,945.96
2023-10-05T05:50:41.504Z,945.97
2023-10-05T05:51:42.473Z,945.98
2023-10-05T05:52:43.055Z,946.04
2023-10-05T05:53:44.081Z,946.03
2023-10-05T05:54:44.676Z,946.04
2023-10-05T05:55:45.052Z,946.07
2023-10-05T05:56:45.942Z,946.08
2023-10-05T05:57:46.499Z,946.12
2023-10-05T05:58:47.518Z,946.09
2023-10-05T05:59:48.488Z,946.13
2023-10-05T06:00:49.442Z,946.1
2023-10-05T06:01:50.187Z,946.1
2023-10-05T06:02:50.680Z,946.08
2023-10-05T06:03:51.203Z,946.09
2023-10-05T06:04:51.513Z,946.13
2023-10-05T06:05:52.426Z,946.12
2023-10-05T06:06:53.178Z,946.18
2023-10-05T06:07:54.147Z,946.15
2023-10-05T06:08:55.008Z,946.18
2023-10-05T06:09:55.965Z,946.15
2023-10-05T06:10:56.559Z,946.2
2023-10-05T06:11:57.543Z,946.2
2023-10-05T06:12:58.310Z,946.14
2023-10-05T06:13:59.313Z,946.2
2023-10-05T06:14:59.552Z,946.18
2023-10-05T06:16:00.523Z,946.19
2023-10-05T06:17:01.046Z,946.2
2023-10-05T06:18:01.566Z,946.2
2023-10-05T06:19:01.824Z,946.2
2023-10-05T06:20:02.197Z,946.21
2023-10-05T06:21:03.127Z,946.19
2023-10-05T06:22:04.155Z,946.23
2023-10-05T06:23:04.690Z,946.19
2023-10-05T06:24:05.415Z,946.2
2023-10-05T06:25:05.997Z,946.19
2023-10-05T06:26:06.964Z,946.18
2023-10-05T06:27:07.786Z,946.22
2023-10-05T06:28:08.645Z,946.22
2023-10-05T06:29:10.895Z,946.22
2023-10-05T06:30:11.805Z,946.19
2023-10-05T06:31:24.128Z,946.19
2023-10-05T06:32:24.436Z,946.21
2023-10-05T06:33:25.530Z,946.19
2023-10-05T06:34:25.755Z,946.15
2023-10-05T06:35:26.513Z,946.17
2023-10-05T06:36:27.296Z,946.14
2023-10-05T06:37:27.561Z,946.08
2023-10-05T06:38:28.246Z,946.1
2023-10-05T06:39:28.451Z,946.12
2023-10-05T06:40:29.424Z,946.15
2023-10-05T06:41:29.751Z,946.13
2023-10-05T06:42:30.301Z,946.1
2023-10-05T06:43:31.048Z,946.12
2023-10-05T06:44:32.958Z,946.14
2023-10-05T06:45:32.163Z,946.12
2023-10-05T06:46:32.753Z,946.13
2023-10-05T06:47:33.198Z,946.14
2023-10-05T06:48:33.820Z,946.08
2023-10-05T06:49:34.552Z,946.11
2023-10-05T06:50:34.838Z,946.1
2023-10-05T06:51:35.553Z,946.11
2023-10-05T06:52:36.027Z,946.14
2023-10-05T06:53:36.987Z,946.13
2023-10-05T06:54:37.731Z,946.12
2023-10-05T06:55:38.297Z,946.15
2023-10-05T06:56:38.444Z,946.14
2023-10-05T06:57:39.354Z,946.13
2023-10-05T06:58:40.240Z,946.11
2023-10-05T06:59:40.935Z,946.12
2023-10-05T07:00:41.881Z,946.08
2023-10-05T07:01:42.571Z,946.08
2023-10-05T07:02:43.487Z,946.07
2023-10-05T07:03:44.124Z,946.08
2023-10-05T07:04:44.617Z,946.09
2023-10-05T07:05:45.477Z,946.15
2023-10-05T07:06:46.069Z,946.12
2023-10-05T07:07:46.404Z,946.12
2023-10-05T07:08:47.370Z,946.14
2023-10-05T07:09:48.367Z,946.12
2023-10-05T07:10:49.283Z,946.16
2023-10-05T07:11:49.423Z,946.16
2023-10-05T07:12:50.222Z,946.16
2023-10-05T07:13:51.071Z,946.18
2023-10-05T07:14:51.834Z,946.16
2023-10-05T07:15:52.794Z,946.16
2023-10-05T07:16:53.733Z,946.16
2023-10-05T07:17:53.930Z,946.15
2023-10-05T07:18:54.309Z,946.2
2023-10-05T07:19:55.233Z,946.19
2023-10-05T07:20:55.810Z,946.19
2023-10-05T07:21:56.604Z,946.22
2023-10-05T07:22:57.576Z,946.25
2023-10-05T07:23:57.684Z,946.25
2023-10-05T07:24:58.224Z,946.27
2023-10-05T07:25:59.069Z,946.31
2023-10-05T07:27:00.015Z,946.32
2023-10-05T07:28:00.277Z,946.35
2023-10-05T07:29:00.803Z,946.38
2023-10-05T07:30:13.477Z,946.41
2023-10-05T07:31:13.954Z,946.42
2023-10-05T07:32:15.106Z,946.46
2023-10-05T07:33:16.318Z,946.48
2023-10-05T07:34:16.034Z,946.49
2023-10-05T07:35:16.332Z,946.48
2023-10-05T07:36:16.509Z,946.49
2023-10-05T07:37:17.413Z,946.46
2023-10-05T07:38:17.634Z,946.5
2023-10-05T07:39:18.418Z,946.46
2023-10-05T07:40:18.955Z,946.42
2023-10-05T07:41:19.959Z,946.43
2023-10-05T07:42:20.959Z,946.45
2023-10-05T07:43:21.932Z,946.43
2023-10-05T07:44:23.235Z,946.48
2023-10-05T07:45:23.073Z,946.48
2023-10-05T07:46:24.017Z,946.55
2023-10-05T07:47:24.363Z,946.49
2023-10-05T07:48:25.186Z,946.49
2023-10-05T07:49:26.239Z,946.49
2023-10-05T07:50:26.366Z,946.46
2023-10-05T07:51:27.043Z,946.49
2023-10-05T07:52:28.099Z,946.45
2023-10-05T07:53:28.876Z,946.43
2023-10-05T07:54:29.402Z,946.38
2023-10-05T07:55:30.380Z,946.32
2023-10-05T07:56:30.648Z,946.31
2023-10-05T07:57:31.435Z,946.32
2023-10-05T07:58:31.543Z,946.34
2023-10-05T07:59:32.611Z,946.38
2023-10-05T08:00:33.320Z,946.41
2023-10-05T08:01:34.403Z,946.42
2023-10-05T08:02:34.601Z,946.45
2023-10-05T08:03:35.694Z,946.49
2023-10-05T08:04:36.316Z,946.49
2023-10-05T08:05:36.675Z,946.51
2023-10-05T08:06:36.853Z,946.55
2023-10-05T08:07:37.750Z,946.57
2023-10-05T08:08:38.002Z,946.6
2023-10-05T08:09:38.929Z,946.55
2023-10-05T08:10:39.625Z,946.5
2023-10-05T08:11:40.623Z,946.54
2023-10-05T08:12:40.794Z,946.56
2023-10-05T08:13:41.766Z,946.56
2023-10-05T08:14:42.759Z,946.58
2023-10-05T08:15:43.467Z,946.62
2023-10-05T08:16:44.325Z,946.62
2023-10-05T08:17:44.425Z,946.66
2023-10-05T08:18:44.770Z,946.65
2023-10-05T08:19:45.754Z,946.66
2023-10-05T08:20:46.679Z,946.65
2023-10-05T08:21:47.722Z,946.62
2023-10-05T08:22:47.660Z,946.61
2023-10-05T08:23:49.184Z,946.66
2023-10-05T08:24:48.808Z,946.7
2023-10-05T08:25:48.970Z,946.67
2023-10-05T08:26:49.589Z,946.68
2023-10-05T08:27:50.368Z,946.7
2023-10-05T08:28:50.938Z,946.68
2023-10-05T08:29:51.990Z,946.71
2023-10-05T08:30:52.827Z,946.68
2023-10-05T08:31:53.664Z,946.64
2023-10-05T08:32:53.974Z,946.62
2023-10-05T08:33:54.770Z,946.59
2023-10-05T08:34:55.739Z,946.63
2023-10-05T08:35:56.099Z,946.63
2023-10-05T08:36:56.846Z,946.63
2023-10-05T08:37:57.589Z,946.58
2023-10-05T08:38:58.652Z,946.62
2023-10-05T08:39:59.447Z,946.65
2023-10-05T08:41:00.171Z,946.61
2023-10-05T08:42:01.232Z,946.65
2023-10-05T08:43:02.027Z,946.63
2023-10-05T08:44:02.656Z,946.65
2023-10-05T08:45:03.749Z,946.7
2023-10-05T08:46:03.892Z,946.67
2023-10-05T08:47:04.215Z,946.73
2023-10-05T08:48:04.612Z,946.75
2023-10-05T08:49:05.698Z,946.75
2023-10-05T08:50:05.927Z,946.73
2023-10-05T08:51:06.620Z,946.7
2023-10-05T08:52:07.173Z,946.68
2023-10-05T08:53:07.267Z,946.65
2023-10-05T08:54:07.965Z,946.66
2023-10-05T08:55:08.104Z,946.65
2023-10-05T08:56:08.195Z,946.6
2023-10-05T08:57:09.193Z,946.6
2023-10-05T08:58:10.322Z,946.6
2023-10-05T08:59:10.317Z,946.6
2023-10-05T09:00:11.253Z,946.62
2023-10-05T09:01:12.306Z,946.63
2023-10-05T09:02:12.857Z,946.63
2023-10-05T09:03:13.134Z,946.63
2023-10-05T09:04:14.229Z,946.63
2023-10-05T09:05:14.460Z,946.65
2023-10-05T09:06:14.942Z,946.66
2023-10-05T09:07:16.019Z,946.7
2023-10-05T09:08:16.098Z,946.73
2023-10-05T09:09:16.287Z,946.75
2023-10-05T09:10:16.814Z,946.8
2023-10-05T09:11:17.460Z,946.8
2023-10-05T09:12:18.002Z,946.8
2023-10-05T09:13:18.976Z,946.79
2023-10-05T09:14:19.884Z,946.82
2023-10-05T09:15:20.271Z,946.78
2023-10-05T09:16:20.740Z,946.79
2023-10-05T09:17:21.365Z,946.78
2023-10-05T09:18:22.392Z,946.74
2023-10-05T09:19:23.104Z,946.78
2023-10-05T09:20:23.442Z,946.79
2023-10-05T09:21:23.695Z,946.79
2023-10-05T09:22:24.739Z,946.82
2023-10-05T09:23:25.653Z,946.83
2023-10-05T09:24:26.069Z,946.85
2023-10-05T09:25:26.823Z,946.85
2023-10-05T09:26:27.321Z,946.89
2023-10-05T09:27:27.442Z,946.91
2023-10-05T09:28:27.760Z,946.92
2023-10-05T09:29:28.498Z,946.92
2023-10-05T09:30:29.069Z,946.88
2023-10-05T09:31:29.365Z,946.89
2023-10-05T09:32:29.608Z,946.91
2023-10-05T09:33:30.499Z,946.9
2023-10-05T09:34:30.860Z,946.91
2023-10-05T09:35:31.820Z,946.96
2023-10-05T09:36:31.963Z,947.04
2023-10-05T09:37:32.794Z,947.03
2023-10-05T09:38:33.853Z,946.98
2023-10-05T09:39:34.247Z,946.96
2023-10-05T09:40:34.534Z,946.93
2023-10-05T09:41:35.458Z,946.98
2023-10-05T09:42:35.731Z,946.94
2023-10-05T09:43:35.920Z,946.89
2023-10-05T09:44:36.530Z,946.94
2023-10-05T09:45:37.480Z,946.92
2023-10-05T09:46:37.789Z,946.9
2023-10-05T09:47:38.389Z,946.96
2023-10-05T09:48:38.988Z,947
2023-10-05T09:49:39.859Z,947.03
2023-10-05T09:50:40.636Z,947
2023-10-05T09:51:41.012Z,947.04
2023-10-05T09:52:41.220Z,947.04
2023-10-05T09:53:42.236Z,946.99
2023-10-05T09:54:42.969Z,946.96
2023-10-05T09:55:43.522Z,947.03
2023-10-05T09:56:45.070Z,946.97
2023-10-05T09:57:45.006Z,947.04
2023-10-05T09:58:45.966Z,947.08
2023-10-05T09:59:46.305Z,947.04
2023-10-05T10:00:46.439Z,947.1
2023-10-05T10:01:46.962Z,947.15
2023-10-05T10:02:47.668Z,947.13
2023-10-05T10:03:48.659Z,947.09
2023-10-05T10:04:49.419Z,947.08
2023-10-05T10:05:50.323Z,947.04
2023-10-05T10:06:50.564Z,947.02
2023-10-05T10:07:51.486Z,947
2023-10-05T10:08:52.056Z,946.99
2023-10-05T10:09:52.761Z,947.02
2023-10-05T10:10:53.950Z,947.05
2023-10-05T10:11:54.266Z,947.04
2023-10-05T10:12:54.804Z,947.05
2023-10-05T10:13:55.909Z,947.06
2023-10-05T10:14:56.957Z,947.01
2023-10-05T10:15:57.885Z,947.06
2023-10-05T10:16:58.948Z,947.05
2023-10-05T10:17:59.970Z,947.04
2023-10-05T10:19:00.290Z,946.97
2023-10-05T10:20:00.907Z,946.93
2023-10-05T10:21:02.012Z,946.9
2023-10-05T10:22:03.077Z,946.94
2023-10-05T10:23:03.913Z,946.89
2023-10-05T10:24:04.752Z,946.89
2023-10-05T10:25:05.926Z,946.88
2023-10-05T10:26:06.408Z,946.94
2023-10-05T10:27:06.861Z,946.92
2023-10-05T10:28:07.565Z,946.91
2023-10-05T10:29:09.759Z,946.9
2023-10-05T10:31:17.761Z,946.86
2023-10-05T10:32:17.912Z,946.84
2023-10-05T10:33:18.303Z,946.83
2023-10-05T10:34:19.234Z,946.86
2023-10-05T10:35:20.091Z,946.83
2023-10-05T10:36:20.628Z,946.83
2023-10-05T10:37:21.702Z,946.84
2023-10-05T10:38:22.130Z,946.84
2023-10-05T10:39:23.282Z,946.8
2023-10-05T10:40:23.742Z,946.8
2023-10-05T10:41:24.525Z,946.74
2023-10-05T10:42:24.886Z,946.72
2023-10-05T10:43:25.189Z,946.74
2023-10-05T10:44:26.149Z,946.77
2023-10-05T10:45:26.854Z,946.78
2023-10-05T10:46:27.581Z,946.77
2023-10-05T10:47:27.792Z,946.74
2023-10-05T10:48:28.336Z,946.74
2023-10-05T10:49:29.101Z,946.74
2023-10-05T10:50:29.200Z,946.71
2023-10-05T10:51:30.126Z,946.74
2023-10-05T10:52:33.136Z,946.7
2023-10-05T10:53:30.592Z,946.69
2023-10-05T10:54:31.529Z,946.69
2023-10-05T10:55:34.140Z,946.71
2023-10-05T10:56:32.845Z,946.72
2023-10-05T10:57:33.547Z,946.7
2023-10-05T10:58:34.179Z,946.73
2023-10-05T10:59:34.334Z,946.69
2023-10-05T11:00:35.061Z,946.66
2023-10-05T11:01:36.953Z,946.69
2023-10-05T11:02:35.761Z,946.64
2023-10-05T11:03:35.970Z,946.62
2023-10-05T11:04:46.582Z,946.56
2023-10-05T11:05:37.152Z,946.51
2023-10-05T11:06:37.645Z,946.5
2023-10-05T11:07:37.847Z,946.48
2023-10-05T11:08:38.041Z,946.42
2023-10-05T11:09:38.190Z,946.44
2023-10-05T11:10:39.186Z,946.42
2023-10-05T11:11:40.260Z,946.42
2023-10-05T11:12:41.327Z,946.4
2023-10-05T11:13:42.360Z,946.41
2023-10-05T11:14:43.325Z,946.35
2023-10-05T11:15:43.810Z,946.33
2023-10-05T11:16:44.085Z,946.32
2023-10-05T11:17:44.923Z,946.3
2023-10-05T11:18:45.167Z,946.25
2023-10-05T11:19:45.908Z,946.28
2023-10-05T11:20:46.929Z,946.26
2023-10-05T11:21:47.936Z,946.25
2023-10-05T11:22:48.945Z,946.21
2023-10-05T11:23:49.738Z,946.24
2023-10-05T11:24:50.710Z,946.22
2023-10-05T11:25:58.523Z,946.14
2023-10-05T11:26:54.508Z,946.14
2023-10-05T11:27:52.336Z,946.05
2023-10-05T11:28:53.364Z,946.07
2023-10-05T11:30:03.964Z,946.04
2023-10-05T11:31:22.293Z,946.07
2023-10-05T11:34:30.887Z,946.08
2023-10-05T11:37:06.306Z,946.03
2023-10-05T11:38:07.689Z,945.95
2023-10-05T11:39:08.551Z,946.01
2023-10-05T11:40:09.218Z,945.96
2023-10-05T11:41:10.251Z,945.92
2023-10-05T11:42:10.942Z,945.88
2023-10-05T11:43:11.487Z,945.91
2023-10-05T11:44:12.445Z,945.94
2023-10-05T11:45:12.683Z,945.99
2023-10-05T11:46:12.917Z,945.94
2023-10-05T11:47:13.367Z,946.01
2023-10-05T11:48:14.020Z,946.03
2023-10-05T11:49:14.970Z,946.02
2023-10-05T11:50:15.731Z,946.04
2023-10-05T11:51:16.023Z,946.07
2023-10-05T11:52:17.103Z,946.08
2023-10-05T11:53:18.144Z,946.02
2023-10-05T11:54:18.676Z,946.04
2023-10-05T11:55:19.398Z,946.05
2023-10-05T11:56:20.500Z,946.07
2023-10-05T11:57:21.200Z,946.11
2023-10-05T11:58:21.734Z,946.15
2023-10-05T11:59:21.965Z,946.17
2023-10-05T12:00:22.964Z,946.19
2023-10-05T12:01:23.998Z,946.21
2023-10-05T12:02:24.224Z,946.22
2023-10-05T12:03:24.698Z,946.25
2023-10-05T12:04:24.941Z,946.23
2023-10-05T12:05:24.975Z,946.25
2023-10-05T12:06:25.392Z,946.21
2023-10-05T12:07:25.714Z,946.21
2023-10-05T12:08:26.036Z,946.22
2023-10-05T12:09:26.967Z,946.21
2023-10-05T12:10:27.749Z,946.22
2023-10-05T12:11:28.015Z,946.23
2023-10-05T12:12:28.846Z,946.16
2023-10-05T12:13:29.056Z,946.22
2023-10-05T12:14:29.328Z,946.19
2023-10-05T12:15:29.850Z,946.21
2023-10-05T12:16:30.691Z,946.23
2023-10-05T12:17:31.301Z,946.25
2023-10-05T12:18:31.825Z,946.24
2023-10-05T12:19:32.660Z,946.26
2023-10-05T12:20:32.877Z,946.26
2023-10-05T12:21:33.452Z,946.24
2023-10-05T12:22:33.792Z,946.21
2023-10-05T12:23:34.028Z,946.24
2023-10-05T12:24:34.157Z,946.22
2023-10-05T12:25:34.898Z,946.18
2023-10-05T12:26:35.100Z,946.15
2023-10-05T12:27:35.571Z,946.17
2023-10-05T12:28:35.689Z,946.17
2023-10-05T12:29:36.636Z,946.2
2023-10-05T12:30:36.821Z,946.24
2023-10-05T12:31:37.897Z,946.22
2023-10-05T12:32:38.149Z,946.24
2023-10-05T12:33:38.822Z,946.25
2023-10-05T12:34:39.154Z,946.27
2023-10-05T12:35:39.302Z,946.23
2023-10-05T12:36:40.096Z,946.25
2023-10-05T12:37:41.075Z,946.28
2023-10-05T12:38:41.686Z,946.28
2023-10-05T12:39:42.658Z,946.26
2023-10-05T12:40:43.509Z,946.29
2023-10-05T12:41:43.835Z,946.27
2023-10-05T12:42:44.644Z,946.26
2023-10-05T12:43:45.427Z,946.24
2023-10-05T12:44:46.382Z,946.25